Island Venture — WDG3765 — position and weather

sailwx.info

Track history (hours):
 
Tides and Currents Weather Stations Pressure Air Temp Water Temp Dewpoint Dewpoint Depression Visibility Wind Speed Wind Dir Waves Ship Positions

Island Venture

More information available from US FCC via Universal Licensing System and Coast Guard Vessel Documentation Center.

Last reported at 2014-Sep-21 06:23 UTC. Time now 2014-Sep-21 08:03 UTC.
Position N 47°35' W 122°22'.

Type: Tug. MMSI: 367529420.

Date/timePositionNaut miles runAvg speedWind from/ knotsBaromVisibWave heightAir tempDewpointWater temp
2014-Sep-21 06:23N 47°35' W 122°22'910.8
2014-Sep-21 05:33N 47°43' W 122°27'1111.2
2014-Sep-21 04:33N 47°54' W 122°30'22 9.6
2014-Sep-21 02:15N 48°13' W 122°47'811.4
2014-Sep-21 01:31N 48°21' W 122°46'1111.6
2014-Sep-21 00:33N 48°32' W 122°41'1111.2
2014-Sep-20 23:33N 48°42' W 122°32'4 3.6
2014-Sep-20 22:25N 48°45' W 122°31'8 9.5
2014-Sep-20 21:33N 48°38' W 122°35'1211.6
2014-Sep-20 20:33N 48°28' W 122°44'27 8.9
2014-Sep-20 17:30N 48°01' W 122°37'910.0
2014-Sep-20 16:33N 47°51' W 122°37'7 3.3
2014-Sep-20 14:27N 47°46' W 122°43'7 7.4
2014-Sep-20 13:28N 47°52' W 122°37'6 6.3
2014-Sep-20 12:31N 47°57' W 122°36'7 7.5
2014-Sep-20 11:33N 47°53' W 122°28'8 7.8
2014-Sep-20 10:33N 47°46' W 122°25'9 6.8
2014-Sep-20 09:11N 47°36' W 122°23'1 2.3
2014-Sep-20 08:33N 47°35' W 122°22'2 1.8
2014-Sep-20 07:33N 47°34' W 122°21'1 0.9
2014-Sep-20 06:33N 47°34' W 122°21'0 0.0
2014-Sep-18 22:25N 47°34' W 122°21'0 0.0
2014-Sep-18 21:33N 47°34' W 122°21'0 0.0
2014-Sep-18 20:33N 47°34' W 122°21'2 2.1
2014-Sep-18 19:33N 47°32' W 122°20'0 0.3
2014-Sep-18 18:34N 47°33' W 122°20'3 3.4
2014-Sep-18 17:33N 47°36' W 122°22'5 4.8
2014-Sep-18 16:33N 47°31' W 122°25'14 6.8
2014-Sep-18 14:34N 47°18' W 122°27'1 0.9
2014-Sep-18 13:33N 47°18' W 122°26'1 1.0
2014-Sep-18 12:33N 47°18' W 122°27'17 5.4
2014-Sep-18 09:29N 47°35' W 122°25'3 2.9
2014-Sep-18 08:33N 47°34' W 122°21'0 0.0
2014-Sep-18 07:33N 47°34' W 122°21'0 0.0
2014-Sep-18 06:33N 47°34' W 122°22'0 0.0
2014-Sep-18 05:33N 47°34' W 122°21'0 0.0
2014-Sep-18 04:33N 47°34' W 122°21'0 0.0
2014-Sep-18 03:33N 47°34' W 122°21'0 0.1
2014-Sep-18 02:33N 47°34' W 122°21'1 1.2
2014-Sep-18 01:33N 47°33' W 122°21'3 2.6
2014-Sep-18 00:33N 47°35' W 122°22'7 6.9
2014-Sep-17 23:33N 47°42' W 122°26'7 7.3
2014-Sep-17 22:33N 47°49' W 122°24'6 6.1
2014-Sep-17 21:33N 47°55' W 122°21'6 5.8
2014-Sep-17 20:33N 47°59' W 122°14'3 3.1
2014-Sep-17 19:33N 48°01' W 122°11'0 0.0
2014-Sep-17 18:27N 48°01' W 122°11'0 0.1
2014-Sep-17 17:33N 48°01' W 122°11'0 0.0
2014-Sep-17 15:28N 48°01' W 122°11'0 0.0
2014-Sep-17 14:28N 48°01' W 122°11'0 0.0
2014-Sep-17 13:29N 48°01' W 122°11'0 0.0
2014-Sep-17 12:07N 48°01' W 122°11'0 0.0
2014-Sep-17 11:33N 48°01' W 122°11'0 0.0
2014-Sep-17 08:22N 48°01' W 122°11'0 0.0
2014-Sep-17 07:30N 48°01' W 122°11'0 0.0
2014-Sep-17 06:33N 48°01' W 122°11'2 1.6
2014-Sep-17 05:33N 48°01' W 122°13'3 2.8
2014-Sep-17 04:33N 47°58' W 122°16'1 0.7
2014-Sep-17 03:26N 47°59' W 122°17'0 0.1
2014-Sep-17 02:33N 47°59' W 122°17'1 0.8
2014-Sep-17 01:33N 47°58' W 122°18'0 0.2
2014-Sep-17 00:33N 47°58' W 122°18'2 2.2
2014-Sep-16 23:33N 47°56' W 122°20'3 2.9
2014-Sep-16 22:33N 47°54' W 122°21'3 3.3
2014-Sep-16 21:33N 47°51' W 122°23'3 3.7
2014-Sep-16 20:49N 47°48' W 122°25'1 3.8
2014-Sep-16 20:33N 47°47' W 122°25'0 3.9
2014-Sep-16 20:29N 47°47' W 122°25'4 3.9
2014-Sep-16 19:33N 47°43' W 122°26'0 3.7
2014-Sep-16 19:29N 47°43' W 122°26'4 4.2
2014-Sep-16 18:33N 47°39' W 122°26'0 6.4
2014-Sep-16 18:29N 47°39' W 122°26'4 4.6
2014-Sep-16 17:33N 47°35' W 122°22'0 0.0
2014-Sep-16 17:33N 47°35' W 122°22'1 1.1
2014-Sep-16 16:33N 47°34' W 122°21'0 0.0
2014-Sep-16 16:33N 47°34' W 122°21'4 4.3
2014-Sep-16 15:32N 47°35' W 122°28'4 1.9
2014-Sep-16 13:30N 47°36' W 122°34'010.3
2014-Sep-16 13:28N 47°36' W 122°33'5 5.7
2014-Sep-16 12:33N 47°35' W 122°25'0 7.1
2014-Sep-16 12:32N 47°36' W 122°25'3 3.4
2014-Sep-16 11:33N 47°34' W 122°21'0 2.0
2014-Sep-16 11:33N 47°34' W 122°21'0 0.0
2014-Sep-16 10:33N 47°34' W 122°21'0 1.7
2014-Sep-16 10:32N 47°34' W 122°21'2 1.6
2014-Sep-16 09:33N 47°35' W 122°22'0 0.3
2014-Sep-16 09:32N 47°35' W 122°22'2 2.5
2014-Sep-16 08:33N 47°35' W 122°26'0 6.3
2014-Sep-16 08:32N 47°34' W 122°26'7 6.9
2014-Sep-16 07:31N 47°28' W 122°31'0 0.0
2014-Sep-16 07:31N 47°28' W 122°31'0 0.0
2014-Sep-15 15:10N 47°28' W 122°31'0 0.0
2014-Sep-15 15:10N 47°28' W 122°31'5 8.0
2014-Sep-15 14:30N 47°33' W 122°27'110.0
2014-Sep-15 14:26N 47°33' W 122°27'3 3.8
2014-Sep-15 13:33N 47°35' W 122°22'0 2.7
2014-Sep-15 13:25N 47°35' W 122°22'  
2014-Sep-12 18:20N 47°34' W 122°22'0 0.1
2014-Sep-12 17:33N 47°34' W 122°21'0 0.1
2014-Sep-12 16:33N 47°34' W 122°22'0 0.2
2014-Sep-12 15:33N 47°34' W 122°21'1 0.7
2014-Sep-12 14:33N 47°34' W 122°21'0 0.0
2014-Sep-12 13:33N 47°34' W 122°21'0 0.3
2014-Sep-12 12:34N 47°34' W 122°21'1 1.3
2014-Sep-12 11:28N 47°33' W 122°20'2 1.8
2014-Sep-12 10:34N 47°34' W 122°21'2 2.3
2014-Sep-12 09:34N 47°36' W 122°24'4 4.4
2014-Sep-12 08:34N 47°33' W 122°28'7 6.7
2014-Sep-12 07:33N 47°26' W 122°31'7 7.0
2014-Sep-12 06:33N 47°20' W 122°33'9 8.1
2014-Sep-12 05:27N 47°11' W 122°39'6 6.6
2014-Sep-12 04:33N 47°11' W 122°48'2 0.1
2014-Sep-11 11:13N 47°11' W 122°50'3 4.9
2014-Sep-11 10:31N 47°09' W 122°46'4 3.9
2014-Sep-11 09:33N 47°08' W 122°40'4 4.4
2014-Sep-11 08:32N 47°12' W 122°36'4 3.9
2014-Sep-11 07:29N 47°16' W 122°34'3 2.7
2014-Sep-11 06:33N 47°18' W 122°33'  
Track history (hours):
 
Tides and Currents Weather Stations Pressure Air Temp Water Temp Dewpoint Dewpoint Depression Visibility Wind Speed Wind Dir Waves Ship Positions

Island Venture

More information available from US FCC via Universal Licensing System and Coast Guard Vessel Documentation Center.

Last reported at 2014-Sep-21 06:23 UTC. Time now 2014-Sep-21 08:03 UTC.
Position N 47°35' W 122°22'.

Type: Tug. MMSI: 367529420.

Date/timePositionNaut miles runAvg speedWind from/ knotsBaromVisibWave heightAir tempDewpointWater temp
2014-Sep-21 06:23N 47°35' W 122°22'910.8
2014-Sep-21 05:33N 47°43' W 122°27'1111.2
2014-Sep-21 04:33N 47°54' W 122°30'22 9.6
2014-Sep-21 02:15N 48°13' W 122°47'811.4
2014-Sep-21 01:31N 48°21' W 122°46'1111.6
2014-Sep-21 00:33N 48°32' W 122°41'1111.2
2014-Sep-20 23:33N 48°42' W 122°32'4 3.6
2014-Sep-20 22:25N 48°45' W 122°31'8 9.5
2014-Sep-20 21:33N 48°38' W 122°35'1211.6
2014-Sep-20 20:33N 48°28' W 122°44'27 8.9
2014-Sep-20 17:30N 48°01' W 122°37'910.0
2014-Sep-20 16:33N 47°51' W 122°37'7 3.3
2014-Sep-20 14:27N 47°46' W 122°43'7 7.4
2014-Sep-20 13:28N 47°52' W 122°37'6 6.3
2014-Sep-20 12:31N 47°57' W 122°36'7 7.5
2014-Sep-20 11:33N 47°53' W 122°28'8 7.8
2014-Sep-20 10:33N 47°46' W 122°25'9 6.8
2014-Sep-20 09:11N 47°36' W 122°23'1 2.3
2014-Sep-20 08:33N 47°35' W 122°22'2 1.8
2014-Sep-20 07:33N 47°34' W 122°21'1 0.9
2014-Sep-20 06:33N 47°34' W 122°21'0 0.0
2014-Sep-18 22:25N 47°34' W 122°21'0 0.0
2014-Sep-18 21:33N 47°34' W 122°21'0 0.0
2014-Sep-18 20:33N 47°34' W 122°21'2 2.1
2014-Sep-18 19:33N 47°32' W 122°20'0 0.3
2014-Sep-18 18:34N 47°33' W 122°20'3 3.4
2014-Sep-18 17:33N 47°36' W 122°22'5 4.8
2014-Sep-18 16:33N 47°31' W 122°25'14 6.8
2014-Sep-18 14:34N 47°18' W 122°27'1 0.9
2014-Sep-18 13:33N 47°18' W 122°26'1 1.0
2014-Sep-18 12:33N 47°18' W 122°27'17 5.4
2014-Sep-18 09:29N 47°35' W 122°25'3 2.9
2014-Sep-18 08:33N 47°34' W 122°21'0 0.0
2014-Sep-18 07:33N 47°34' W 122°21'0 0.0
2014-Sep-18 06:33N 47°34' W 122°22'0 0.0
2014-Sep-18 05:33N 47°34' W 122°21'0 0.0
2014-Sep-18 04:33N 47°34' W 122°21'0 0.0
2014-Sep-18 03:33N 47°34' W 122°21'0 0.1
2014-Sep-18 02:33N 47°34' W 122°21'1 1.2
2014-Sep-18 01:33N 47°33' W 122°21'3 2.6
2014-Sep-18 00:33N 47°35' W 122°22'7 6.9
2014-Sep-17 23:33N 47°42' W 122°26'7 7.3
2014-Sep-17 22:33N 47°49' W 122°24'6 6.1
2014-Sep-17 21:33N 47°55' W 122°21'6 5.8
2014-Sep-17 20:33N 47°59' W 122°14'3 3.1
2014-Sep-17 19:33N 48°01' W 122°11'0 0.0
2014-Sep-17 18:27N 48°01' W 122°11'0 0.1
2014-Sep-17 17:33N 48°01' W 122°11'0 0.0
2014-Sep-17 15:28N 48°01' W 122°11'0 0.0
2014-Sep-17 14:28N 48°01' W 122°11'0 0.0
2014-Sep-17 13:29N 48°01' W 122°11'0 0.0
2014-Sep-17 12:07N 48°01' W 122°11'0 0.0
2014-Sep-17 11:33N 48°01' W 122°11'0 0.0
2014-Sep-17 08:22N 48°01' W 122°11'0 0.0
2014-Sep-17 07:30N 48°01' W 122°11'0 0.0
2014-Sep-17 06:33N 48°01' W 122°11'2 1.6
2014-Sep-17 05:33N 48°01' W 122°13'3 2.8
2014-Sep-17 04:33N 47°58' W 122°16'1 0.7
2014-Sep-17 03:26N 47°59' W 122°17'0 0.1
2014-Sep-17 02:33N 47°59' W 122°17'1 0.8
2014-Sep-17 01:33N 47°58' W 122°18'0 0.2
2014-Sep-17 00:33N 47°58' W 122°18'2 2.2
2014-Sep-16 23:33N 47°56' W 122°20'3 2.9
2014-Sep-16 22:33N 47°54' W 122°21'3 3.3
2014-Sep-16 21:33N 47°51' W 122°23'3 3.7
2014-Sep-16 20:49N 47°48' W 122°25'1 3.8
2014-Sep-16 20:33N 47°47' W 122°25'0 3.9
2014-Sep-16 20:29N 47°47' W 122°25'4 3.9
2014-Sep-16 19:33N 47°43' W 122°26'0 3.7
2014-Sep-16 19:29N 47°43' W 122°26'4 4.2
2014-Sep-16 18:33N 47°39' W 122°26'0 6.4
2014-Sep-16 18:29N 47°39' W 122°26'4 4.6
2014-Sep-16 17:33N 47°35' W 122°22'0 0.0
2014-Sep-16 17:33N 47°35' W 122°22'1 1.1
2014-Sep-16 16:33N 47°34' W 122°21'0 0.0
2014-Sep-16 16:33N 47°34' W 122°21'4 4.3
2014-Sep-16 15:32N 47°35' W 122°28'4 1.9
2014-Sep-16 13:30N 47°36' W 122°34'010.3
2014-Sep-16 13:28N 47°36' W 122°33'5 5.7
2014-Sep-16 12:33N 47°35' W 122°25'0 7.1
2014-Sep-16 12:32N 47°36' W 122°25'3 3.4
2014-Sep-16 11:33N 47°34' W 122°21'0 2.0
2014-Sep-16 11:33N 47°34' W 122°21'0 0.0
2014-Sep-16 10:33N 47°34' W 122°21'0 1.7
2014-Sep-16 10:32N 47°34' W 122°21'2 1.6
2014-Sep-16 09:33N 47°35' W 122°22'0 0.3
2014-Sep-16 09:32N 47°35' W 122°22'2 2.5
2014-Sep-16 08:33N 47°35' W 122°26'0 6.3
2014-Sep-16 08:32N 47°34' W 122°26'7 6.9
2014-Sep-16 07:31N 47°28' W 122°31'0 0.0
2014-Sep-16 07:31N 47°28' W 122°31'0 0.0
2014-Sep-15 15:10N 47°28' W 122°31'0 0.0
2014-Sep-15 15:10N 47°28' W 122°31'5 8.0
2014-Sep-15 14:30N 47°33' W 122°27'110.0
2014-Sep-15 14:26N 47°33' W 122°27'3 3.8
2014-Sep-15 13:33N 47°35' W 122°22'0 2.7
2014-Sep-15 13:25N 47°35' W 122°22'  
2014-Sep-12 18:20N 47°34' W 122°22'0 0.1
2014-Sep-12 17:33N 47°34' W 122°21'0 0.1
2014-Sep-12 16:33N 47°34' W 122°22'0 0.2
2014-Sep-12 15:33N 47°34' W 122°21'1 0.7
2014-Sep-12 14:33N 47°34' W 122°21'0 0.0
2014-Sep-12 13:33N 47°34' W 122°21'0 0.3
2014-Sep-12 12:34N 47°34' W 122°21'1 1.3
2014-Sep-12 11:28N 47°33' W 122°20'2 1.8
2014-Sep-12 10:34N 47°34' W 122°21'2 2.3
2014-Sep-12 09:34N 47°36' W 122°24'4 4.4
2014-Sep-12 08:34N 47°33' W 122°28'7 6.7
2014-Sep-12 07:33N 47°26' W 122°31'7 7.0
2014-Sep-12 06:33N 47°20' W 122°33'9 8.1
2014-Sep-12 05:27N 47°11' W 122°39'6 6.6
2014-Sep-12 04:33N 47°11' W 122°48'2 0.1
2014-Sep-11 11:13N 47°11' W 122°50'3 4.9
2014-Sep-11 10:31N 47°09' W 122°46'4 3.9
2014-Sep-11 09:33N 47°08' W 122°40'4 4.4
2014-Sep-11 08:32N 47°12' W 122°36'4 3.9
2014-Sep-11 07:29N 47°16' W 122°34'3 2.7
2014-Sep-11 06:33N 47°18' W 122°33'  

Dump ship's entire track history